Time;durP1;ratioP1;P1;durP2;ratioP2;P2;SDS_P1;SDS_P2;PMS_P1;PMS_P2;Temp;Humidity;BMP_temperature;BMP_pressure;BME280_temperature;BME280_humidity;BME280_pressure;Samples;Min_cycle;Max_cycle;Signal;HPM_P1;HPM_P2
2021/08/19 00:00:31;;;;;;;5.30;1.80;;;22.70;86.30;;;;;;4255001;27;20235;-72
2021/08/19 00:02:34;;;;;;;6.63;1.90;;;22.80;86.40;;;;;;4255339;27;20051;-72
2021/08/19 00:04:38;;;;;;;7.05;2.05;;;22.80;86.50;;;;;;4255223;27;20057;-72
2021/08/19 00:06:41;;;;;;;5.18;1.90;;;22.70;86.40;;;;;;4255338;27;20058;-72
2021/08/19 00:08:44;;;;;;;4.25;1.70;;;22.70;86.50;;;;;;4255040;28;20050;-72
2021/08/19 00:10:47;;;;;;;2.00;1.80;;;22.60;86.70;;;;;;4255103;28;20103;-72
2021/08/19 00:12:50;;;;;;;2.20;1.73;;;22.70;86.90;;;;;;4254916;27;20051;-72
2021/08/19 00:14:55;;;;;;;5.93;2.00;;;22.60;86.90;;;;;;4254829;28;20043;-72
2021/08/19 00:16:58;;;;;;;4.78;1.70;;;22.60;86.80;;;;;;4255240;28;20054;-72
2021/08/19 00:19:01;;;;;;;3.75;1.80;;;22.60;86.60;;;;;;4255004;28;20047;-73
2021/08/19 00:21:05;;;;;;;2.58;1.52;;;22.50;87.10;;;;;;4255247;28;20051;-72
2021/08/19 00:23:08;;;;;;;2.67;2.00;;;22.50;86.60;;;;;;4255261;28;20056;-72
2021/08/19 00:25:13;;;;;;;1.98;1.65;;;22.50;87.10;;;;;;4255174;28;20058;-72
2021/08/19 00:27:16;;;;;;;2.78;1.80;;;22.50;86.70;;;;;;4255429;28;20110;-73
2021/08/19 00:29:19;;;;;;;4.32;2.22;;;22.60;86.60;;;;;;4255159;28;20055;-73
2021/08/19 00:31:24;;;;;;;2.95;1.60;;;22.60;86.10;;;;;;4255385;28;20055;-72
2021/08/19 00:33:27;;;;;;;2.35;1.77;;;22.60;86.30;;;;;;4255283;28;20047;-72
2021/08/19 00:35:30;;;;;;;3.05;1.67;;;22.60;86.10;;;;;;4255090;28;20062;-72
2021/08/19 00:37:34;;;;;;;4.22;1.90;;;22.50;85.90;;;;;;4254915;28;20051;-73
2021/08/19 00:39:38;;;;;;;4.85;1.67;;;22.40;86.60;;;;;;4254828;28;20051;-72
2021/08/19 00:41:41;;;;;;;4.78;1.65;;;22.50;86.20;;;;;;4255083;28;20051;-72
2021/08/19 00:43:44;;;;;;;2.78;1.80;;;22.50;85.90;;;;;;4255107;28;20051;-72
2021/08/19 00:45:47;;;;;;;3.28;2.13;;;22.50;85.90;;;;;;4254908;28;20257;-72
2021/08/19 00:47:52;;;;;;;2.38;1.80;;;22.40;86.00;;;;;;4255011;28;20357;-72
2021/08/19 00:50:00;;;;;;;2.45;1.95;;;22.50;86.10;;;;;;4254604;28;20051;-72
2021/08/19 00:52:05;;;;;;;2.42;1.60;;;22.50;86.00;;;;;;4254794;28;20088;-72
2021/08/19 00:54:10;;;;;;;2.72;2.17;;;22.40;86.30;;;;;;4254792;27;20055;-73
2021/08/19 00:56:13;;;;;;;2.55;1.70;;;22.40;86.70;;;;;;4254852;28;20059;-72
2021/08/19 00:58:16;;;;;;;4.18;1.67;;;22.40;86.80;;;;;;4254906;28;20057;-72
2021/08/19 01:00:19;;;;;;;2.83;1.88;;;22.40;86.80;;;;;;4254885;28;20051;-73
2021/08/19 01:02:23;;;;;;;2.45;1.63;;;22.40;87.20;;;;;;4254682;28;20096;-72
2021/08/19 01:04:29;;;;;;;4.13;1.90;;;22.40;86.90;;;;;;4254480;28;20047;-73
2021/08/19 01:06:33;;;;;;;2.75;1.73;;;22.40;86.40;;;;;;4254572;28;20224;-72
2021/08/19 01:08:36;;;;;;;3.33;2.13;;;22.40;86.40;;;;;;4254649;28;20321;-72
2021/08/19 01:10:40;;;;;;;4.72;2.08;;;22.40;86.20;;;;;;4254848;28;20673;-72
2021/08/19 01:12:46;;;;;;;3.70;1.70;;;22.40;86.10;;;;;;4254913;28;20046;-72
2021/08/19 01:14:49;;;;;;;3.22;1.70;;;22.40;86.20;;;;;;4254689;28;20047;-72
2021/08/19 01:16:52;;;;;;;3.05;2.00;;;22.40;86.30;;;;;;4254460;28;20072;-72
2021/08/19 01:18:55;;;;;;;3.70;1.95;;;22.30;86.50;;;;;;4254910;28;20124;-72
2021/08/19 01:21:00;;;;;;;2.70;1.63;;;22.20;86.10;;;;;;4254558;28;20229;-72
2021/08/19 01:23:03;;;;;;;4.22;1.80;;;22.30;85.90;;;;;;4254388;28;20047;-72
2021/08/19 01:25:07;;;;;;;4.32;1.83;;;22.30;85.90;;;;;;4254962;27;20051;-72
2021/08/19 01:27:13;;;;;;;5.57;2.17;;;22.30;86.00;;;;;;4257482;27;20051;-72
2021/08/19 01:29:16;;;;;;;2.70;1.80;;;22.30;86.40;;;;;;4257545;27;20054;-71
2021/08/19 01:31:21;;;;;;;5.70;1.92;;;22.30;85.80;;;;;;4257631;27;20053;-72
2021/08/19 01:33:25;;;;;;;2.95;1.77;;;22.30;86.00;;;;;;4257385;27;20051;-72
2021/08/19 01:35:29;;;;;;;2.15;1.90;;;22.20;86.10;;;;;;4257296;27;20250;-72
2021/08/19 01:37:32;;;;;;;2.85;1.90;;;22.20;86.00;;;;;;4257647;27;20051;-72
2021/08/19 01:39:36;;;;;;;2.90;1.92;;;22.20;86.00;;;;;;4257252;27;20047;-72
2021/08/19 01:41:39;;;;;;;3.88;2.03;;;22.20;86.30;;;;;;4257320;27;20062;-72
2021/08/19 01:43:45;;;;;;;3.85;1.85;;;22.10;86.80;;;;;;4257070;27;20142;-72
2021/08/19 01:45:49;;;;;;;3.00;2.00;;;22.10;86.60;;;;;;4257434;27;20047;-72
2021/08/19 01:47:52;;;;;;;4.25;2.17;;;22.20;86.30;;;;;;4257463;27;20070;-72
2021/08/19 01:49:55;;;;;;;2.92;2.05;;;22.20;86.20;;;;;;4257461;27;20053;-72
2021/08/19 01:51:58;;;;;;;2.80;2.03;;;22.20;86.10;;;;;;4257263;27;20043;-73
2021/08/19 01:54:01;;;;;;;2.83;1.98;;;22.20;86.50;;;;;;4256841;27;20047;-73
2021/08/19 01:56:04;;;;;;;5.07;2.10;;;22.20;86.40;;;;;;4256894;27;20054;-73
2021/08/19 01:58:07;;;;;;;1.85;1.67;;;22.20;86.20;;;;;;4256883;27;20051;-72
2021/08/19 02:00:12;;;;;;;3.78;2.20;;;22.20;86.30;;;;;;4257208;27;20047;-72
2021/08/19 02:02:15;;;;;;;;;;;22.20;86.20;;;;;;4257447;27;20035;-72
2021/08/19 02:04:18;;;;;;;2.58;1.83;;;22.20;86.20;;;;;;4256805;27;19922;-72
2021/08/19 02:06:21;;;;;;;3.97;2.20;;;22.20;86.10;;;;;;4256812;27;20071;-72
2021/08/19 02:08:25;;;;;;;3.80;2.13;;;22.10;86.50;;;;;;4256784;27;20073;-73
2021/08/19 02:10:28;;;;;;;3.67;1.98;;;22.10;86.50;;;;;;4256921;27;20087;-72
2021/08/19 02:12:31;;;;;;;2.38;1.85;;;22.10;86.50;;;;;;4257081;27;20057;-72
2021/08/19 02:14:34;;;;;;;3.58;2.42;;;22.00;86.30;;;;;;4257313;27;20047;-73
2021/08/19 02:16:39;;;;;;;3.00;1.92;;;22.00;86.30;;;;;;4256492;27;20170;-72
2021/08/19 02:18:42;;;;;;;3.90;2.15;;;22.10;86.00;;;;;;4257097;27;20353;-72
2021/08/19 02:20:45;;;;;;;3.15;2.00;;;22.10;86.00;;;;;;4256546;27;20046;-72
2021/08/19 02:22:48;;;;;;;4.28;2.15;;;22.10;86.10;;;;;;4256900;27;20262;-72
2021/08/19 02:24:52;;;;;;;4.03;2.03;;;22.10;85.90;;;;;;4256523;27;20050;-73
2021/08/19 02:26:55;;;;;;;2.78;1.85;;;22.10;85.70;;;;;;4256584;27;20062;-72
2021/08/19 02:28:58;;;;;;;2.35;2.05;;;22.10;85.50;;;;;;4256505;27;20361;-72
2021/08/19 02:31:01;;;;;;;4.95;2.05;;;22.10;85.70;;;;;;4256512;27;20059;-72
2021/08/19 02:33:06;;;;;;;3.67;2.00;;;22.10;86.00;;;;;;4256652;27;20067;-72
2021/08/19 02:35:09;;;;;;;4.93;2.03;;;22.10;86.10;;;;;;4256437;27;20055;-72
2021/08/19 02:37:12;;;;;;;3.92;2.00;;;22.00;86.00;;;;;;4256032;27;20057;-72
2021/08/19 02:39:15;;;;;;;3.53;2.15;;;22.00;86.40;;;;;;4256592;27;20265;-73
2021/08/19 02:41:18;;;;;;;2.28;1.98;;;22.00;86.70;;;;;;4256645;27;20053;-72
2021/08/19 02:43:21;;;;;;;6.10;2.45;;;22.00;86.30;;;;;;4256245;27;20058;-73
2021/08/19 02:45:24;;;;;;;4.07;2.30;;;21.90;86.70;;;;;;4256411;27;20350;-73
2021/08/19 02:47:27;;;;;;;2.80;1.80;;;22.00;86.60;;;;;;4256435;27;20057;-72
2021/08/19 02:49:32;;;;;;;4.15;2.45;;;22.00;86.20;;;;;;4256240;27;20159;-73
2021/08/19 02:51:35;;;;;;;3.28;2.33;;;22.00;86.10;;;;;;4255978;27;20114;-72
2021/08/19 02:53:38;;;;;;;3.63;2.00;;;21.90;86.40;;;;;;4256391;27;20053;-72
2021/08/19 02:55:41;;;;;;;5.25;2.30;;;21.90;86.50;;;;;;4255885;27;20055;-72
2021/08/19 02:57:44;;;;;;;4.90;2.13;;;21.90;86.10;;;;;;4256423;27;20334;-72
2021/08/19 02:59:47;;;;;;;11.35;2.10;;;21.90;86.20;;;;;;4256007;27;20043;-72
2021/08/19 03:01:50;;;;;;;2.83;1.77;;;21.90;86.10;;;;;;4255922;27;20096;-72
2021/08/19 03:03:53;;;;;;;3.47;2.40;;;21.90;86.00;;;;;;4256214;27;20114;-72
2021/08/19 03:05:58;;;;;;;2.97;2.17;;;21.90;86.20;;;;;;4255753;27;20047;-72
2021/08/19 03:08:01;;;;;;;6.68;2.40;;;21.90;85.90;;;;;;4256032;27;20332;-72
2021/08/19 03:10:05;;;;;;;2.83;2.03;;;21.90;86.10;;;;;;4255710;27;20051;-72
2021/08/19 03:12:08;;;;;;;3.95;1.92;;;21.90;86.10;;;;;;4255784;27;20240;-75
2021/08/19 03:14:11;;;;;;;5.40;2.47;;;21.90;86.30;;;;;;4255617;27;20251;-72
2021/08/19 03:16:14;;;;;;;4.47;2.28;;;21.90;86.20;;;;;;4255601;27;20112;-72
2021/08/19 03:18:18;;;;;;;2.78;2.15;;;21.80;86.90;;;;;;4256162;27;20069;-72
2021/08/19 03:20:21;;;;;;;4.30;2.20;;;21.70;86.70;;;;;;4255964;27;20353;-72
2021/08/19 03:22:26;;;;;;;4.93;2.53;;;21.80;86.50;;;;;;4256093;27;20164;-72
2021/08/19 03:24:30;;;;;;;4.63;1.92;;;21.80;86.40;;;;;;4254631;27;20096;-72
2021/08/19 03:26:33;;;;;;;4.15;2.15;;;21.70;86.50;;;;;;4255832;27;20416;-72
2021/08/19 03:28:36;;;;;;;3.10;2.13;;;21.70;86.60;;;;;;4255925;27;20039;-72
2021/08/19 03:30:39;;;;;;;5.18;1.83;;;21.70;86.60;;;;;;4255797;27;20494;-72
2021/08/19 03:32:42;;;;;;;2.88;2.10;;;21.70;86.60;;;;;;4255746;27;20046;-72
2021/08/19 03:34:45;;;;;;;3.88;2.42;;;21.70;86.40;;;;;;4255814;27;20058;-72
2021/08/19 03:36:48;;;;;;;5.30;2.17;;;21.60;86.60;;;;;;4255712;27;20103;-72
2021/08/19 03:38:53;;;;;;;5.53;2.75;;;21.70;86.50;;;;;;4255703;27;20062;-72
2021/08/19 03:40:56;;;;;;;4.82;2.58;;;21.60;86.70;;;;;;4255486;27;20055;-72
2021/08/19 03:42:59;;;;;;;3.35;2.38;;;21.50;87.20;;;;;;4255824;27;20055;-72
2021/08/19 03:45:02;;;;;;;2.78;2.20;;;21.50;87.20;;;;;;4255758;27;20108;-73
2021/08/19 03:47:06;;;;;;;5.93;2.30;;;21.50;87.10;;;;;;4255652;27;20058;-72
2021/08/19 03:49:09;;;;;;;5.22;2.72;;;21.50;87.00;;;;;;4254949;27;20286;-72
2021/08/19 03:51:12;;;;;;;2.83;2.53;;;21.40;87.00;;;;;;4255437;27;20124;-73
2021/08/19 03:53:17;;;;;;;3.75;2.63;;;21.50;86.70;;;;;;4255794;27;20051;-72
2021/08/19 03:55:22;;;;;;;6.60;2.20;;;21.50;86.40;;;;;;4255308;27;20340;-72
2021/08/19 03:57:25;;;;;;;3.65;2.15;;;21.50;86.40;;;;;;4255554;27;20339;-72
2021/08/19 03:59:28;;;;;;;3.05;2.20;;;21.50;86.00;;;;;;4255504;27;20096;-73
2021/08/19 04:01:31;;;;;;;4.35;2.47;;;21.60;86.00;;;;;;4255573;27;20376;-72
2021/08/19 04:03:38;;;;;;;2.63;2.00;;;21.60;86.10;;;;;;4255457;27;20357;-72
2021/08/19 04:05:45;;;;;;;3.35;2.33;;;21.60;86.10;;;;;;4255147;27;20155;-72
2021/08/19 04:07:48;;;;;;;4.72;2.47;;;21.50;86.50;;;;;;4255315;27;20054;-72
2021/08/19 04:09:51;;;;;;;2.85;2.10;;;21.50;86.90;;;;;;4255389;27;20058;-73
2021/08/19 04:11:56;;;;;;;3.78;2.40;;;21.50;86.70;;;;;;4255214;28;20095;-72
2021/08/19 04:13:59;;;;;;;6.18;2.58;;;21.50;86.40;;;;;;4255503;28;20051;-72
2021/08/19 04:16:02;;;;;;;4.78;2.50;;;21.50;86.10;;;;;;4255440;28;20364;-72
2021/08/19 04:18:05;;;;;;;4.78;2.72;;;21.60;86.30;;;;;;4255257;28;20067;-72
2021/08/19 04:20:10;;;;;;;3.50;2.42;;;21.60;86.50;;;;;;4255199;28;20065;-72
2021/08/19 04:22:13;;;;;;;4.07;2.28;;;21.60;86.10;;;;;;4255337;28;20268;-73
2021/08/19 04:24:16;;;;;;;3.42;2.17;;;21.60;86.40;;;;;;4255171;28;20423;-72
2021/08/19 04:26:19;;;;;;;3.53;2.38;;;21.60;86.10;;;;;;4254895;28;20051;-72
2021/08/19 04:28:24;;;;;;;6.05;2.47;;;21.70;86.10;;;;;;4254918;28;20051;-72
2021/08/19 04:30:27;;;;;;;3.67;2.78;;;21.70;85.90;;;;;;4255037;28;20073;-72
2021/08/19 04:32:30;;;;;;;6.38;2.47;;;21.70;86.30;;;;;;4254968;28;20072;-71
2021/08/19 04:34:33;;;;;;;8.50;2.95;;;21.60;86.10;;;;;;4254127;28;20343;-71
2021/08/19 04:36:36;;;;;;;7.65;2.80;;;21.70;86.20;;;;;;4254941;28;20054;-72
2021/08/19 04:38:39;;;;;;;3.75;2.95;;;21.60;86.20;;;;;;4254847;28;20110;-72
2021/08/19 04:40:42;;;;;;;4.55;2.80;;;21.60;86.40;;;;;;4255089;28;20055;-72
2021/08/19 04:42:46;;;;;;;3.67;2.85;;;21.60;86.10;;;;;;4254763;28;20119;-71
2021/08/19 04:44:51;;;;;;;5.80;2.80;;;21.60;86.10;;;;;;4255086;28;20047;-71
2021/08/19 04:46:54;;;;;;;5.70;2.70;;;21.70;86.20;;;;;;4254511;28;20070;-72
2021/08/19 04:48:59;;;;;;;5.40;2.92;;;21.70;86.20;;;;;;4254983;28;20054;-72
2021/08/19 04:51:02;;;;;;;5.90;2.95;;;21.60;86.60;;;;;;4254955;28;20100;-72
2021/08/19 04:53:05;;;;;;;2.80;2.45;;;21.50;86.60;;;;;;4255029;28;20104;-72
2021/08/19 04:55:09;;;;;;;4.07;2.88;;;21.50;86.70;;;;;;4253332;27;20043;-72
2021/08/19 04:57:12;;;;;;;4.10;3.03;;;21.60;86.80;;;;;;4254871;28;20075;-72
2021/08/19 04:59:15;;;;;;;5.15;2.97;;;21.50;86.80;;;;;;4255693;27;20261;-71
2021/08/19 05:01:20;;;;;;;5.78;2.90;;;21.50;86.70;;;;;;4258108;27;20043;-72
2021/08/19 05:03:23;;;;;;;;;;;21.50;86.60;;;;;;4258757;27;20200;-72
2021/08/19 05:05:26;;;;;;;4.78;2.50;;;21.60;86.30;;;;;;4257824;27;19919;-72
2021/08/19 05:07:30;;;;;;;5.45;2.90;;;21.60;86.50;;;;;;4257949;27;20051;-72
2021/08/19 05:09:33;;;;;;;9.13;3.33;;;21.60;86.70;;;;;;4257978;27;20047;-72
2021/08/19 05:11:36;;;;;;;6.82;3.30;;;21.50;87.10;;;;;;4257798;27;20331;-71
2021/08/19 05:13:39;;;;;;;5.55;3.03;;;21.30;87.90;;;;;;4239987;27;20144;-72
2021/08/19 05:15:42;;;;;;;4.60;3.22;;;21.30;87.80;;;;;;4257928;27;20366;-71
2021/08/19 05:17:47;;;;;;;4.03;2.95;;;21.40;87.40;;;;;;4257545;27;20047;-72
2021/08/19 05:19:50;;;;;;;8.98;3.42;;;21.30;88.00;;;;;;4257647;27;20254;-71
2021/08/19 05:21:53;;;;;;;3.90;3.35;;;21.20;88.40;;;;;;4257839;27;20070;-71
2021/08/19 05:23:56;;;;;;;4.25;3.45;;;21.00;89.10;;;;;;4257724;27;20051;-72
2021/08/19 05:25:59;;;;;;;4.93;3.45;;;21.10;88.80;;;;;;4257868;27;20342;-71
2021/08/19 05:28:02;;;;;;;5.97;3.55;;;21.20;88.60;;;;;;4257529;27;20043;-72
2021/08/19 05:30:06;;;;;;;5.93;3.67;;;21.30;88.00;;;;;;4257682;27;20054;-72
2021/08/19 05:32:09;;;;;;;;;;;21.40;88.00;;;;;;4258253;27;20047;-71
2021/08/19 05:34:14;;;;;;;6.75;3.20;;;21.40;87.50;;;;;;4257721;27;19915;-72
2021/08/19 05:36:17;;;;;;;7.38;3.30;;;21.30;88.00;;;;;;4257749;27;20094;-72
2021/08/19 05:38:20;;;;;;;6.28;3.70;;;21.30;88.10;;;;;;4257451;27;20059;-71
2021/08/19 05:40:23;;;;;;;6.53;3.28;;;21.30;88.20;;;;;;4257295;27;20051;-72
2021/08/19 05:42:26;;;;;;;5.80;3.40;;;21.30;88.30;;;;;;4257516;27;20043;-72
2021/08/19 05:44:29;;;;;;;9.75;4.10;;;21.30;88.50;;;;;;4256057;27;20047;-72
2021/08/19 05:46:32;;;;;;;6.30;3.50;;;21.20;88.90;;;;;;4257462;27;20063;-72
2021/08/19 05:48:35;;;;;;;8.25;3.67;;;21.10;89.70;;;;;;4257242;27;20212;-72
2021/08/19 05:50:39;;;;;;;9.05;3.63;;;21.00;89.50;;;;;;4257249;27;20118;-72
2021/08/19 05:52:44;;;;;;;3.83;2.97;;;21.10;89.10;;;;;;4257408;27;20050;-71
2021/08/19 05:54:47;;;;;;;4.68;3.22;;;21.20;88.40;;;;;;4257049;27;20061;-72
2021/08/19 05:56:50;;;;;;;4.57;3.45;;;21.40;88.20;;;;;;4257478;27;20080;-72
2021/08/19 05:58:53;;;;;;;5.55;3.70;;;21.50;87.80;;;;;;4257136;27;20047;-72
2021/08/19 06:00:56;;;;;;;6.20;3.95;;;21.50;87.80;;;;;;4257166;27;20058;-72
2021/08/19 06:02:59;;;;;;;10.40;3.60;;;21.40;87.80;;;;;;4257011;27;20096;-72
2021/08/19 06:05:03;;;;;;;6.47;3.20;;;21.40;88.10;;;;;;4257156;27;20047;-71
2021/08/19 06:07:07;;;;;;;5.68;3.40;;;21.50;87.60;;;;;;4256563;27;20100;-72
2021/08/19 06:09:10;;;;;;;6.80;3.83;;;21.50;87.40;;;;;;4256320;27;20061;-71
2021/08/19 06:11:13;;;;;;;7.43;3.63;;;21.50;87.10;;;;;;4256314;27;20047;-71
2021/08/19 06:13:17;;;;;;;5.68;3.42;;;21.50;86.80;;;;;;4256923;27;20050;-71
2021/08/19 06:15:20;;;;;;;5.00;3.10;;;21.60;87.00;;;;;;4256902;27;20328;-71
2021/08/19 06:17:24;;;;;;;5.93;3.20;;;21.60;86.90;;;;;;4256961;27;20046;-72
2021/08/19 06:19:27;;;;;;;9.45;3.72;;;21.50;86.70;;;;;;4255731;27;20139;-71
2021/08/19 06:21:30;;;;;;;6.60;3.47;;;21.60;86.60;;;;;;4257019;27;20051;-72
2021/08/19 06:23:35;;;;;;;12.07;4.28;;;21.60;86.50;;;;;;4256979;27;20050;-72
2021/08/19 06:25:39;;;;;;;5.38;3.47;;;21.60;86.70;;;;;;4256677;27;20054;-71
2021/08/19 06:27:42;;;;;;;5.43;3.63;;;21.60;86.80;;;;;;4256895;27;20065;-72
2021/08/19 06:29:45;;;;;;;6.75;3.35;;;21.60;86.50;;;;;;4256797;27;20108;-72
2021/08/19 06:31:48;;;;;;;5.63;3.22;;;21.50;87.20;;;;;;4238774;28;20047;-72
2021/08/19 06:33:52;;;;;;;6.85;3.30;;;21.50;87.00;;;;;;4256682;27;20235;-72
2021/08/19 06:35:55;;;;;;;4.75;3.50;;;21.60;86.40;;;;;;4256454;27;20246;-72
2021/08/19 06:37:58;;;;;;;8.93;3.88;;;21.70;86.30;;;;;;4256425;27;20065;-72
2021/08/19 06:40:04;;;;;;;6.50;3.30;;;21.60;85.90;;;;;;4256573;27;20057;-72
2021/08/19 06:42:08;;;;;;;6.10;3.58;;;21.60;85.80;;;;;;4256280;27;20225;-72
2021/08/19 06:44:11;;;;;;;7.05;3.67;;;21.60;86.20;;;;;;4256199;27;20047;-72
2021/08/19 06:46:14;;;;;;;5.65;2.95;;;21.60;86.10;;;;;;4256644;27;20039;-71
2021/08/19 06:48:17;;;;;;;7.50;3.92;;;21.60;86.40;;;;;;4256361;27;20114;-72
2021/08/19 06:50:21;;;;;;;5.22;3.28;;;21.60;86.20;;;;;;4256399;27;20303;-72
2021/08/19 06:52:24;;;;;;;8.15;3.72;;;21.60;86.00;;;;;;4256426;27;20100;-71
2021/08/19 06:54:27;;;;;;;9.52;4.07;;;21.60;86.60;;;;;;4256201;27;20042;-72
2021/08/19 06:56:32;;;;;;;5.45;3.92;;;21.60;86.70;;;;;;4256438;27;20288;-72
2021/08/19 06:58:35;;;;;;;6.40;3.65;;;21.50;87.20;;;;;;4256293;27;20335;-73
2021/08/19 07:00:38;;;;;;;5.65;3.40;;;21.50;86.80;;;;;;4256304;27;20047;-72
2021/08/19 07:02:42;;;;;;;6.88;3.78;;;21.50;87.10;;;;;;4256239;27;20047;-71
2021/08/19 07:04:45;;;;;;;8.02;3.47;;;21.50;86.70;;;;;;4256123;27;20051;-71
2021/08/19 07:06:48;;;;;;;7.53;4.00;;;21.60;86.50;;;;;;4255810;27;20047;-71
2021/08/19 07:08:51;;;;;;;6.28;3.92;;;21.40;86.70;;;;;;4255833;27;20051;-72
2021/08/19 07:10:54;;;;;;;5.95;3.47;;;21.40;87.30;;;;;;4255769;27;20130;-72
2021/08/19 07:12:59;;;;;;;7.57;3.83;;;21.20;87.80;;;;;;4255485;27;20067;-72
2021/08/19 07:15:02;;;;;;;3.90;3.30;;;21.30;87.70;;;;;;4255848;27;20351;-71
2021/08/19 07:17:05;;;;;;;10.35;3.65;;;21.40;87.60;;;;;;4255599;27;20061;-72
2021/08/19 07:19:08;;;;;;;6.28;3.40;;;21.50;87.10;;;;;;4255520;27;20055;-73
2021/08/19 07:21:11;;;;;;;7.05;3.92;;;21.60;87.40;;;;;;4256047;27;20051;-72
2021/08/19 07:23:15;;;;;;;7.75;4.03;;;21.60;87.10;;;;;;4254851;27;20054;-71
2021/08/19 07:25:21;;;;;;;7.32;3.83;;;21.70;86.90;;;;;;4255819;27;20327;-72
2021/08/19 07:27:24;;;;;;;7.10;3.35;;;21.70;86.90;;;;;;4255726;27;20054;-72
2021/08/19 07:29:28;;;;;;;7.88;3.60;;;21.60;87.10;;;;;;4255823;27;20335;-71
2021/08/19 07:31:32;;;;;;;9.32;3.97;;;21.60;87.70;;;;;;4255345;27;20353;-72
2021/08/19 07:33:35;;;;;;;7.47;3.92;;;21.60;87.40;;;;;;4255669;27;20047;-72
2021/08/19 07:35:38;;;;;;;6.93;3.80;;;21.50;88.20;;;;;;4255630;27;20047;-71
2021/08/19 07:37:47;;;;;;;7.68;3.70;;;21.60;87.80;;;;;;4237696;28;20047;-72
2021/08/19 07:39:50;;;;;;;8.65;4.75;;;21.60;87.90;;;;;;4254269;27;20323;-71
2021/08/19 07:41:53;;;;;;;8.52;4.18;;;21.50;87.80;;;;;;4255304;27;20352;-72
2021/08/19 07:43:56;;;;;;;6.70;4.20;;;21.60;87.60;;;;;;4255621;27;20051;-71
2021/08/19 07:46:01;;;;;;;5.57;3.58;;;21.70;87.20;;;;;;4255629;27;20235;-72
2021/08/19 07:48:07;;;;;;;9.82;3.78;;;21.70;86.80;;;;;;4255409;27;20087;-72
2021/08/19 07:50:11;;;;;;;12.80;4.13;;;21.70;86.90;;;;;;4255404;27;20526;-71
2021/08/19 07:52:14;;;;;;;5.70;4.15;;;21.70;86.60;;;;;;4255511;27;20096;-72
2021/08/19 07:54:18;;;;;;;11.23;4.25;;;21.60;86.60;;;;;;4254863;27;20086;-72
2021/08/19 07:56:21;;;;;;;17.55;4.47;;;21.60;86.40;;;;;;4255276;27;20080;-73
2021/08/19 07:58:23;;;;;;;5.40;3.58;;;21.50;86.80;;;;;;4255499;27;20059;-72
2021/08/19 08:00:28;;;;;;;10.43;3.83;;;21.40;86.90;;;;;;4255268;27;20104;-72
2021/08/19 08:02:32;;;;;;;11.77;4.45;;;21.40;87.10;;;;;;4255350;27;20104;-71
2021/08/19 08:04:36;;;;;;;7.05;4.13;;;21.40;87.20;;;;;;4255085;27;20052;-72
2021/08/19 08:06:40;;;;;;;8.57;3.88;;;21.40;87.40;;;;;;4255170;27;20119;-72
2021/08/19 08:08:43;;;;;;;9.07;4.55;;;21.60;87.10;;;;;;4254635;27;20051;-72
2021/08/19 08:10:48;;;;;;;;;;;21.80;86.60;;;;;;4255042;27;20224;-72
2021/08/19 08:12:51;;;;;;;6.25;3.72;;;22.00;86.50;;;;;;4263272;27;19919;-72
2021/08/19 08:14:54;;;;;;;8.45;3.95;;;22.00;86.70;;;;;;4271437;27;20314;-72
2021/08/19 08:16:57;;;;;;;6.85;4.15;;;22.00;86.80;;;;;;4272332;27;20104;-72
2021/08/19 08:19:02;;;;;;;6.60;3.97;;;22.00;86.80;;;;;;4253989;27;20261;-73
2021/08/19 08:21:05;;;;;;;6.55;3.75;;;22.10;86.30;;;;;;4272368;27;20051;-72
2021/08/19 08:23:09;;;;;;;9.65;3.60;;;22.20;86.10;;;;;;4271936;27;20054;-72
2021/08/19 08:25:12;;;;;;;8.07;3.97;;;22.20;86.10;;;;;;4267385;27;20281;-72
2021/08/19 08:27:15;;;;;;;6.15;4.13;;;22.10;85.70;;;;;;4272216;27;20057;-71
2021/08/19 08:29:19;;;;;;;9.40;4.70;;;22.00;85.80;;;;;;4268136;27;20226;-66
2021/08/19 08:31:22;;;;;;;6.40;4.32;;;21.90;85.90;;;;;;4254824;28;20055;-66
2021/08/19 08:33:26;;;;;;;18.48;8.77;;;21.90;86.10;;;;;;4254693;28;20055;-66
2021/08/19 08:35:36;;;;;;;7.32;5.38;;;21.90;86.60;;;;;;4265777;27;20113;-66
2021/08/19 08:37:40;;;;;;;14.95;5.88;;;22.00;86.30;;;;;;4257390;27;20047;-66
2021/08/19 08:39:44;;;;;;;8.55;4.40;;;22.00;85.90;;;;;;4275066;27;20069;-67
2021/08/19 08:41:47;;;;;;;11.75;4.63;;;22.00;86.10;;;;;;4275703;27;20051;-67
2021/08/19 08:43:51;;;;;;;7.45;4.45;;;22.10;86.00;;;;;;4275491;27;20107;-68
2021/08/19 08:45:57;;;;;;;9.18;4.05;;;22.20;85.40;;;;;;4275826;27;20047;-69
2021/08/19 08:48:01;;;;;;;5.88;3.67;;;22.20;85.10;;;;;;4264982;27;20068;-66
2021/08/19 08:50:05;;;;;;;5.90;3.83;;;22.20;84.80;;;;;;4258296;27;20063;-67
2021/08/19 08:52:10;;;;;;;5.90;3.28;;;22.20;85.10;;;;;;4257977;27;20343;-71
2021/08/19 08:54:13;;;;;;;7.28;3.45;;;22.20;85.10;;;;;;4258113;27;20277;-66
2021/08/19 08:56:16;;;;;;;5.40;3.65;;;22.20;84.90;;;;;;4258088;27;20051;-68
2021/08/19 08:58:20;;;;;;;7.60;3.67;;;22.30;83.90;;;;;;4257919;27;20107;-67
2021/08/19 09:00:23;;;;;;;6.38;3.50;;;22.40;83.50;;;;;;4258219;27;20388;-70
2021/08/19 09:02:45;;;;;;;10.90;3.53;;;22.30;82.90;;;;;;4242926;27;20140;-69
2021/08/19 09:05:05;;;;;;;9.02;3.58;;;22.20;83.70;;;;;;4239751;28;20310;-68
2021/08/19 09:07:10;;;;;;;5.63;3.47;;;22.30;83.90;;;;;;4257066;27;20051;-67
2021/08/19 09:09:19;;;;;;;3.15;2.85;;;22.30;82.90;;;;;;4257818;27;20047;-66
2021/08/19 09:11:41;;;;;;;7.78;3.58;;;22.30;82.80;;;;;;4258075;27;20243;-66
2021/08/19 09:13:45;;;;;;;7.80;3.50;;;22.00;82.90;;;;;;4240031;27;20061;-68
2021/08/19 09:15:51;;;;;;;5.53;3.10;;;21.80;83.70;;;;;;4258052;27;20055;-67
2021/08/19 09:17:56;;;;;;;7.28;3.40;;;21.80;84.10;;;;;;4257834;27;20039;-66
2021/08/19 09:20:05;;;;;;;9.07;3.47;;;21.80;84.10;;;;;;4257766;27;20087;-67
2021/08/19 09:22:13;;;;;;;6.43;3.63;;;22.00;84.30;;;;;;4257643;27;20055;-65
2021/08/19 09:24:19;;;;;;;7.53;3.95;;;22.00;84.40;;;;;;4258246;27;20099;-66
2021/08/19 09:26:28;;;;;;;8.02;4.32;;;22.10;84.20;;;;;;4257527;27;20052;-65
2021/08/19 09:28:33;;;;;;;6.53;3.65;;;22.10;83.90;;;;;;4239446;27;20052;-66
2021/08/19 09:30:38;;;;;;;10.87;3.63;;;22.10;83.80;;;;;;4270352;27;20054;-68
2021/08/19 09:32:43;;;;;;;9.05;3.67;;;22.00;84.10;;;;;;4274771;27;20459;-65
2021/08/19 09:34:50;;;;;;;7.43;3.53;;;22.10;84.30;;;;;;4274699;27;20051;-66
2021/08/19 09:37:01;;;;;;;12.18;4.10;;;22.20;84.30;;;;;;4274578;27;20051;-65
2021/08/19 09:39:08;;;;;;;6.82;3.42;;;22.10;84.10;;;;;;4274428;27;20102;-66
2021/08/19 09:41:14;;;;;;;9.40;3.40;;;22.20;84.00;;;;;;4274599;27;20109;-66
2021/08/19 09:43:35;;;;;;;7.85;3.85;;;22.30;83.70;;;;;;4274456;27;20114;-66
2021/08/19 09:45:45;;;;;;;6.03;3.08;;;22.30;82.90;;;;;;4273413;27;20239;-67
2021/08/19 09:47:52;;;;;;;5.90;2.90;;;22.20;83.40;;;;;;4274576;27;20051;-66
2021/08/19 09:50:11;;;;;;;5.18;2.70;;;22.30;83.50;;;;;;4274605;27;20272;-67
2021/08/19 09:52:15;;;;;;;8.52;2.78;;;22.30;83.70;;;;;;4274616;27;20084;-67
2021/08/19 09:54:27;;;;;;;7.00;2.90;;;22.30;83.40;;;;;;4274164;27;20046;-67
2021/08/19 09:56:32;;;;;;;9.93;2.78;;;22.40;83.20;;;;;;4255904;27;20070;-65
2021/08/19 09:58:35;;;;;;;5.93;1.90;;;22.40;83.00;;;;;;4274029;27;20099;-65
2021/08/19 10:00:42;;;;;;;8.15;2.17;;;22.50;82.40;;;;;;4273918;27;20103;-66
2021/08/19 10:02:45;;;;;;;4.75;2.00;;;22.40;82.10;;;;;;4274126;27;20080;-65
2021/08/19 10:04:49;;;;;;;9.65;3.60;;;22.30;82.20;;;;;;4274103;27;20095;-65
2021/08/19 10:06:52;;;;;;;4.22;2.20;;;22.30;82.60;;;;;;4274219;27;20050;-68
2021/08/19 10:08:55;;;;;;;8.55;2.35;;;22.30;82.60;;;;;;4274136;27;20055;-67
2021/08/19 10:11:00;;;;;;;4.47;2.20;;;22.30;82.00;;;;;;4274176;27;20063;-68
2021/08/19 10:13:04;;;;;;;3.72;2.33;;;22.20;82.40;;;;;;4274252;27;20392;-67
2021/08/19 10:15:08;;;;;;;7.53;2.42;;;22.20;82.40;;;;;;4255670;27;20062;-68
2021/08/19 10:17:12;;;;;;;5.40;2.35;;;22.30;81.80;;;;;;4273832;27;20107;-68
2021/08/19 10:19:19;;;;;;;4.03;2.30;;;22.30;82.10;;;;;;4255766;27;20040;-68
2021/08/19 10:21:22;;;;;;;5.45;2.03;;;22.30;81.90;;;;;;4265693;27;20059;-67
2021/08/19 10:23:38;;;;;;;2.63;1.85;;;22.20;82.00;;;;;;4243356;27;20071;-66
2021/08/19 10:25:42;;;;;;;4.40;2.10;;;22.30;81.70;;;;;;4273483;27;20050;-66
2021/08/19 10:27:47;;;;;;;5.43;1.77;;;22.30;81.80;;;;;;4273851;27;20046;-66
2021/08/19 10:29:52;;;;;;;3.58;1.98;;;22.40;81.70;;;;;;4273791;27;20055;-66
2021/08/19 10:31:54;;;;;;;;;;;22.40;81.00;;;;;;4274365;27;20120;-66
2021/08/19 10:33:57;;;;;;;5.93;2.00;;;22.30;81.60;;;;;;4273970;27;20248;-66
2021/08/19 10:36:22;;;;;;;6.20;2.20;;;22.20;81.80;;;;;;4273699;27;20055;-67
2021/08/19 10:38:25;;;;;;;2.42;1.77;;;22.20;81.80;;;;;;4270717;27;20080;-65
2021/08/19 10:40:45;;;;;;;4.45;2.33;;;22.10;82.40;;;;;;4260503;27;20058;-65
2021/08/19 10:42:51;;;;;;;3.85;1.92;;;22.20;82.00;;;;;;4273296;27;20343;-67
2021/08/19 10:44:56;;;;;;;3.60;1.80;;;22.00;81.70;;;;;;4273657;27;20074;-68
2021/08/19 10:46:59;;;;;;;3.42;1.83;;;22.00;82.40;;;;;;4273422;27;20043;-68